Time;durP1;ratioP1;P1;durP2;ratioP2;P2;SDS_P1;SDS_P2;PMS_P1;PMS_P2;Temp;Humidity;BMP_temperature;BMP_pressure;BME280_temperature;BME280_humidity;BME280_pressure;Samples;Min_cycle;Max_cycle;Signal;HPM_P1;HPM_P2
2023/09/07 00:01:31;;;;;;;1.88;1.08;;;18.80;22.20;;;;;;5094096;28;20044;-65
2023/09/07 00:03:57;;;;;;;1.08;0.98;;;19.40;23.30;;;;;;5092513;28;20048;-65
2023/09/07 00:06:22;;;;;;;0.95;0.85;;;18.70;19.50;;;;;;5092141;28;20056;-65
2023/09/07 00:08:48;;;;;;;0.93;0.85;;;18.70;20.60;;;;;;5092423;28;20173;-66
2023/09/07 00:11:13;;;;;;;1.40;1.05;;;18.70;24.00;;;;;;5093509;28;20044;-65
2023/09/07 00:13:39;;;;;;;1.20;1.10;;;18.70;16.90;;;;;;5093883;28;20040;-67
2023/09/07 00:16:05;;;;;;;1.30;1.20;;;18.80;14.20;;;;;;5093406;28;20155;-64
2023/09/07 00:18:32;;;;;;;1.08;0.98;;;18.80;10.00;;;;;;5092243;28;20093;-64
2023/09/07 00:20:59;;;;;;;0.95;0.73;;;18.80;5.50;;;;;;5092072;28;20453;-64
2023/09/07 00:23:24;;;;;;;1.02;0.93;;;19.50;1.00;;;;;;5093677;28;20499;-63
2023/09/07 00:25:50;;;;;;;0.88;0.77;;;18.80;1.00;;;;;;5075260;28;20040;-64
2023/09/07 00:28:16;;;;;;;0.80;0.80;;;18.90;1.00;;;;;;5108876;28;20036;-64
2023/09/07 00:30:41;;;;;;;0.90;0.90;;;18.90;1.00;;;;;;5093130;28;20097;-64
2023/09/07 00:33:07;;;;;;;0.80;0.80;;;18.90;1.00;;;;;;5093522;28;20447;-65
2023/09/07 00:35:34;;;;;;;1.13;1.02;;;18.90;1.00;;;;;;5108934;28;20043;-64
2023/09/07 00:37:59;;;;;;;2.03;1.05;;;18.90;1.00;;;;;;5093349;28;20039;-67
2023/09/07 00:40:26;;;;;;;0.90;0.90;;;19.00;1.00;;;;;;5092267;28;20035;-66
2023/09/07 00:42:52;;;;;;;2.47;1.00;;;19.00;1.00;;;;;;5093140;28;20039;-66
2023/09/07 00:45:17;;;;;;;1.00;1.00;;;19.80;1.00;;;;;;5093372;28;20036;-67
2023/09/07 00:47:43;;;;;;;1.02;0.95;;;19.00;1.00;;;;;;5093533;28;20059;-67
2023/09/07 00:50:09;;;;;;;0.80;0.80;;;19.00;1.00;;;;;;5092979;28;20388;-67
2023/09/07 00:52:39;;;;;;;1.17;1.00;;;19.00;1.00;;;;;;5091854;28;20044;-66
2023/09/07 00:55:05;;;;;;;1.35;0.70;;;19.00;1.00;;;;;;5093087;28;20036;-66
2023/09/07 00:57:31;;;;;;;0.88;0.88;;;18.90;1.00;;;;;;5093345;28;20107;-67
2023/09/07 00:59:57;;;;;;;1.75;0.95;;;19.10;1.00;;;;;;5093258;28;20082;-67
2023/09/07 01:02:23;;;;;;;1.40;1.05;;;18.90;1.00;;;;;;5093154;28;20071;-66
2023/09/07 01:04:50;;;;;;;1.15;1.10;;;18.90;1.00;;;;;;5092893;28;20040;-67
2023/09/07 01:07:20;;;;;;;0.80;0.80;;;18.80;1.00;;;;;;5092873;28;20194;-67
2023/09/07 01:09:51;;;;;;;1.00;0.90;;;18.80;1.00;;;;;;5091519;28;20066;-67
2023/09/07 01:12:17;;;;;;;;;;;18.80;1.00;;;;;;5092101;28;20130;-67
2023/09/07 01:14:43;;;;;;;1.10;1.02;;;18.80;1.00;;;;;;5092748;28;20029;-67
2023/09/07 01:17:09;;;;;;;0.93;0.93;;;18.70;1.00;;;;;;5091475;28;20051;-67
2023/09/07 01:19:35;;;;;;;0.68;0.68;;;18.70;1.00;;;;;;5093129;28;20043;-67
2023/09/07 01:22:01;;;;;;;0.82;0.82;;;18.60;1.00;;;;;;5108651;28;20135;-66
2023/09/07 01:24:29;;;;;;;1.88;1.23;;;18.60;1.00;;;;;;5092946;28;20447;-67
2023/09/07 01:26:57;;;;;;;1.17;0.90;;;18.60;1.00;;;;;;5093001;28;20128;-64
2023/09/07 01:29:22;;;;;;;1.08;1.05;;;19.20;1.00;;;;;;5092821;28;20040;-65
2023/09/07 01:31:48;;;;;;;1.20;0.90;;;18.60;1.00;;;;;;5092824;28;20032;-64
2023/09/07 01:34:14;;;;;;;1.08;0.95;;;18.60;1.00;;;;;;5091312;28;20506;-64
2023/09/07 01:36:40;;;;;;;1.67;1.00;;;18.50;1.00;;;;;;5092594;28;20403;-64
2023/09/07 01:39:08;;;;;;;1.20;1.00;;;19.30;1.00;;;;;;5092489;28;20040;-64
2023/09/07 01:41:34;;;;;;;1.52;0.90;;;18.50;1.00;;;;;;5092553;28;20044;-64
2023/09/07 01:44:00;;;;;;;1.20;1.00;;;18.50;1.00;;;;;;5094417;28;20047;-65
2023/09/07 01:46:26;;;;;;;1.35;1.25;;;18.40;1.00;;;;;;5112559;28;20411;-64
2023/09/07 01:48:51;;;;;;;1.13;1.02;;;18.40;1.00;;;;;;5095138;28;20074;-64
2023/09/07 01:51:17;;;;;;;1.25;1.10;;;18.40;1.00;;;;;;5111923;28;20058;-64
2023/09/07 01:53:42;;;;;;;4.10;1.20;;;18.30;1.00;;;;;;5096238;28;20540;-64
2023/09/07 01:56:09;;;;;;;1.05;0.93;;;18.30;1.00;;;;;;5096470;28;20067;-68
2023/09/07 01:58:36;;;;;;;2.05;0.95;;;18.30;1.00;;;;;;5096192;28;20048;-64
2023/09/07 02:01:02;;;;;;;1.60;0.88;;;18.20;1.00;;;;;;5096341;28;20040;-64
2023/09/07 02:03:27;;;;;;;1.27;1.17;;;18.20;1.00;;;;;;5096336;28;20392;-65
2023/09/07 02:05:54;;;;;;;1.27;1.17;;;18.10;1.00;;;;;;5095897;28;20063;-64
2023/09/07 02:08:19;;;;;;;1.10;1.00;;;18.40;1.00;;;;;;5096258;28;20426;-64
2023/09/07 02:10:45;;;;;;;1.38;1.27;;;18.10;1.00;;;;;;5094565;28;20222;-64
2023/09/07 02:13:11;;;;;;;0.80;0.80;;;18.10;1.00;;;;;;5096066;28;20476;-64
2023/09/07 02:15:38;;;;;;;1.05;1.05;;;17.90;1.00;;;;;;5096143;28;20036;-64
2023/09/07 02:18:05;;;;;;;0.95;0.90;;;18.10;1.00;;;;;;5096042;28;20032;-65
2023/09/07 02:20:31;;;;;;;1.00;1.00;;;18.70;1.00;;;;;;5095979;28;20072;-64
2023/09/07 02:22:57;;;;;;;1.30;1.17;;;17.90;1.00;;;;;;5095959;28;20044;-64
2023/09/07 02:25:23;;;;;;;1.10;1.00;;;18.00;1.00;;;;;;5095479;28;20036;-64
2023/09/07 02:27:48;;;;;;;1.00;1.00;;;18.00;1.00;;;;;;5095862;28;20039;-65
2023/09/07 02:30:14;;;;;;;0.73;0.73;;;18.00;1.00;;;;;;5095708;28;20553;-64
2023/09/07 02:32:44;;;;;;;0.80;0.80;;;18.00;1.00;;;;;;5111277;28;20036;-64
2023/09/07 02:35:10;;;;;;;1.43;1.17;;;17.90;1.00;;;;;;5095710;28;20047;-64
2023/09/07 02:37:36;;;;;;;1.00;1.00;;;17.90;1.00;;;;;;5095753;28;20262;-65
2023/09/07 02:40:06;;;;;;;1.35;1.25;;;18.20;1.00;;;;;;5094055;28;20089;-65
2023/09/07 02:42:32;;;;;;;1.20;1.10;;;17.80;1.00;;;;;;5094092;28;20075;-64
2023/09/07 02:44:58;;;;;;;1.20;1.10;;;17.70;1.00;;;;;;5110903;28;20479;-64
2023/09/07 02:47:23;;;;;;;1.00;0.95;;;17.70;1.00;;;;;;5110914;28;20512;-66
2023/09/07 02:49:49;;;;;;;1.00;1.00;;;17.70;1.00;;;;;;5095379;28;20040;-65
2023/09/07 02:52:14;;;;;;;1.35;1.20;;;17.60;1.60;;;;;;5095355;28;20064;-64
2023/09/07 02:54:41;;;;;;;0.90;0.90;;;17.60;5.70;;;;;;5093597;28;20032;-64
2023/09/07 02:57:07;;;;;;;1.30;1.20;;;17.50;10.10;;;;;;5095419;28;20039;-64
2023/09/07 02:59:33;;;;;;;1.35;1.25;;;17.40;13.60;;;;;;5095190;28;20115;-64
2023/09/07 03:01:58;;;;;;;2.45;1.30;;;17.40;21.20;;;;;;5076779;28;20032;-64
2023/09/07 03:04:24;;;;;;;2.22;1.55;;;17.30;23.30;;;;;;5095168;28;20464;-64
2023/09/07 03:06:49;;;;;;;1.20;1.10;;;17.20;26.50;;;;;;5094699;28;20052;-65
2023/09/07 03:09:15;;;;;;;1.23;1.13;;;17.20;26.50;;;;;;5094957;28;20047;-65
2023/09/07 03:11:41;;;;;;;1.60;1.20;;;17.30;28.60;;;;;;5076578;28;20040;-65
2023/09/07 03:14:06;;;;;;;1.30;1.20;;;17.10;34.60;;;;;;5094962;28;20036;-64
2023/09/07 03:16:32;;;;;;;1.23;1.13;;;17.00;38.10;;;;;;5094883;28;20054;-69
2023/09/07 03:18:57;;;;;;;1.30;1.20;;;17.00;41.10;;;;;;5094915;28;20089;-65
2023/09/07 03:21:29;;;;;;;1.40;1.30;;;17.60;42.70;;;;;;5076966;28;20380;-65
2023/09/07 03:23:57;;;;;;;4.07;1.63;;;16.90;43.80;;;;;;5094640;28;20044;-64
2023/09/07 03:26:23;;;;;;;1.35;1.17;;;16.90;46.40;;;;;;5094656;28;20047;-65
2023/09/07 03:28:49;;;;;;;1.63;1.42;;;16.80;48.30;;;;;;5110229;28;20048;-64
2023/09/07 03:31:15;;;;;;;1.42;1.20;;;16.80;51.00;;;;;;5094184;28;20047;-64
2023/09/07 03:33:40;;;;;;;1.98;1.70;;;16.80;52.70;;;;;;5093308;28;20087;-64
2023/09/07 03:36:06;;;;;;;1.13;1.02;;;16.70;54.10;;;;;;5094232;28;20040;-64
2023/09/07 03:38:31;;;;;;;1.60;1.50;;;16.70;55.00;;;;;;5094453;28;20502;-64
2023/09/07 03:40:57;;;;;;;1.35;1.25;;;16.70;59.40;;;;;;5094405;28;20495;-64
2023/09/07 03:43:22;;;;;;;1.63;1.30;;;16.60;59.60;;;;;;5094122;28;20118;-64
2023/09/07 03:45:48;;;;;;;1.60;1.50;;;16.40;59.00;;;;;;5094122;28;20036;-64
2023/09/07 03:48:13;;;;;;;1.83;1.60;;;16.50;64.20;;;;;;5093251;28;20042;-64
2023/09/07 03:50:39;;;;;;;1.50;1.40;;;16.50;65.40;;;;;;5094175;28;20392;-64
2023/09/07 03:53:05;;;;;;;1.88;1.33;;;16.50;63.10;;;;;;5094060;28;20060;-65
2023/09/07 03:55:43;;;;;;;1.73;1.60;;;16.50;64.20;;;;;;5109820;28;20040;-64
2023/09/07 03:58:10;;;;;;;1.00;1.00;;;16.40;70.30;;;;;;5093872;28;20484;-64
2023/09/07 04:00:44;;;;;;;1.40;1.30;;;16.60;68.80;;;;;;5094135;28;20043;-64
2023/09/07 04:03:09;;;;;;;1.50;1.27;;;16.40;67.60;;;;;;5093766;28;20040;-64
2023/09/07 04:05:37;;;;;;;1.50;1.40;;;16.40;67.50;;;;;;5093174;28;20101;-65
2023/09/07 04:08:03;;;;;;;1.67;1.40;;;16.30;69.50;;;;;;5093647;28;20092;-66
2023/09/07 04:10:29;;;;;;;2.08;1.88;;;16.30;69.90;;;;;;5092324;28;20048;-66
2023/09/07 04:12:54;;;;;;;1.35;1.25;;;16.30;69.60;;;;;;5093853;28;20533;-64
2023/09/07 04:15:20;;;;;;;1.50;1.40;;;16.20;74.80;;;;;;5093766;28;20036;-64
2023/09/07 04:17:46;;;;;;;1.30;1.20;;;16.20;73.20;;;;;;5093770;28;20494;-64
2023/09/07 04:20:14;;;;;;;1.60;1.50;;;16.20;71.70;;;;;;5093433;28;20499;-64
2023/09/07 04:22:40;;;;;;;1.10;1.10;;;16.10;71.30;;;;;;5092357;28;20048;-65
2023/09/07 04:25:06;;;;;;;1.40;1.30;;;16.10;72.00;;;;;;5109025;28;20051;-64
2023/09/07 04:27:31;;;;;;;1.65;1.55;;;16.10;72.20;;;;;;5109160;28;20480;-64
2023/09/07 04:29:57;;;;;;;1.50;1.40;;;16.10;75.30;;;;;;5108979;28;20035;-63
2023/09/07 04:32:23;;;;;;;1.50;1.40;;;16.00;76.80;;;;;;5093500;28;20093;-64
2023/09/07 04:34:53;;;;;;;1.35;1.25;;;16.00;76.80;;;;;;5109224;28;20040;-64
2023/09/07 04:37:19;;;;;;;1.42;1.33;;;16.00;75.70;;;;;;5093529;28;20044;-65
2023/09/07 04:39:45;;;;;;;1.30;1.20;;;16.50;76.30;;;;;;5093077;28;20039;-64
2023/09/07 04:42:10;;;;;;;1.65;1.55;;;15.90;76.60;;;;;;5091836;28;20093;-65
2023/09/07 04:44:36;;;;;;;1.40;1.30;;;15.90;74.50;;;;;;5093442;28;20043;-65
2023/09/07 04:47:01;;;;;;;1.38;1.27;;;15.60;76.80;;;;;;5093380;28;20043;-65
2023/09/07 04:49:27;;;;;;;1.65;1.55;;;15.90;76.20;;;;;;5108580;28;20044;-65
2023/09/07 04:51:54;;;;;;;1.50;1.40;;;15.90;76.30;;;;;;5091683;28;20488;-67
2023/09/07 04:54:20;;;;;;;1.83;1.65;;;15.90;75.80;;;;;;5093193;28;20043;-65
2023/09/07 04:56:45;;;;;;;2.03;1.25;;;15.90;77.40;;;;;;5092885;28;20032;-66
2023/09/07 04:59:11;;;;;;;1.90;1.70;;;15.80;78.70;;;;;;5108751;28;20032;-67
2023/09/07 05:01:36;;;;;;;1.65;1.55;;;15.80;78.00;;;;;;5093040;28;20040;-67
2023/09/07 05:04:03;;;;;;;1.63;1.52;;;16.10;79.50;;;;;;5093126;28;20495;-68
2023/09/07 05:06:29;;;;;;;1.60;1.50;;;15.80;80.30;;;;;;5091435;28;20059;-68
2023/09/07 05:08:55;;;;;;;1.35;1.25;;;15.60;78.50;;;;;;5093033;28;20498;-68
2023/09/07 05:11:20;;;;;;;1.65;1.55;;;15.60;79.30;;;;;;5092993;28;20050;-67
2023/09/07 05:13:46;;;;;;;1.45;1.33;;;15.90;79.80;;;;;;5108557;28;20093;-67
2023/09/07 05:16:11;;;;;;;1.48;1.35;;;16.30;81.20;;;;;;5092731;28;20036;-67
2023/09/07 05:18:37;;;;;;;1.50;1.40;;;16.30;81.60;;;;;;5095911;28;20044;-64
2023/09/07 05:21:11;;;;;;;1.35;1.25;;;15.90;80.60;;;;;;5097150;28;20036;-65
2023/09/07 05:23:37;;;;;;;1.38;1.27;;;15.80;80.70;;;;;;5097404;28;20040;-64
2023/09/07 05:26:02;;;;;;;1.55;1.45;;;15.80;81.80;;;;;;5096752;28;20032;-64
2023/09/07 05:28:28;;;;;;;2.35;1.60;;;16.00;81.90;;;;;;5097013;28;20036;-64
2023/09/07 05:30:54;;;;;;;1.35;1.25;;;15.90;80.80;;;;;;5096527;28;20472;-65
2023/09/07 05:33:19;;;;;;;1.58;1.48;;;15.90;82.10;;;;;;5096978;28;20047;-66
2023/09/07 05:35:48;;;;;;;1.13;1.02;;;15.90;83.40;;;;;;5096681;28;20042;-65
2023/09/07 05:38:13;;;;;;;1.55;1.45;;;15.90;82.50;;;;;;5096535;28;20068;-65
2023/09/07 05:40:41;;;;;;;1.20;1.10;;;15.90;83.80;;;;;;5096953;28;20068;-64
2023/09/07 05:43:06;;;;;;;1.30;1.20;;;16.00;84.20;;;;;;5096852;28;20533;-65
2023/09/07 05:45:36;;;;;;;1.88;1.10;;;15.90;84.40;;;;;;5096774;28;20036;-65
2023/09/07 05:48:03;;;;;;;1.92;1.73;;;16.00;81.90;;;;;;5096813;28;20035;-64
2023/09/07 05:50:28;;;;;;;8.80;1.83;;;16.00;80.70;;;;;;5096698;28;20044;-65
2023/09/07 05:52:54;;;;;;;2.45;1.30;;;16.00;81.60;;;;;;5096431;28;20036;-66
2023/09/07 05:55:19;;;;;;;2.17;1.30;;;16.10;80.80;;;;;;5096483;28;20476;-64
2023/09/07 05:57:46;;;;;;;1.60;1.50;;;16.80;80.10;;;;;;5096484;28;20593;-65
2023/09/07 06:00:12;;;;;;;1.40;1.30;;;16.20;78.90;;;;;;5096651;28;20079;-65
2023/09/07 06:02:38;;;;;;;1.30;1.20;;;16.40;76.30;;;;;;5094859;28;20124;-64
2023/09/07 06:05:04;;;;;;;1.70;1.60;;;17.30;74.90;;;;;;5096161;28;20476;-64
2023/09/07 06:07:29;;;;;;;1.98;1.58;;;16.50;71.80;;;;;;5096368;28;20127;-66
2023/09/07 06:09:58;;;;;;;1.48;1.38;;;16.60;69.30;;;;;;5111672;28;20040;-67
2023/09/07 06:12:24;;;;;;;1.52;1.42;;;16.70;67.00;;;;;;5094622;28;20047;-68
2023/09/07 06:14:49;;;;;;;1.45;1.35;;;16.80;64.90;;;;;;5095879;28;20032;-68
2023/09/07 06:17:15;;;;;;;3.00;1.23;;;16.70;62.90;;;;;;5096052;28;20032;-68
2023/09/07 06:19:41;;;;;;;1.63;1.52;;;16.90;60.80;;;;;;5096085;28;20039;-69
2023/09/07 06:22:06;;;;;;;1.50;1.40;;;17.00;56.10;;;;;;5095623;28;20044;-68
2023/09/07 06:24:32;;;;;;;2.03;1.85;;;17.50;51.50;;;;;;5095829;28;20041;-69
2023/09/07 06:26:57;;;;;;;1.23;1.13;;;17.20;47.70;;;;;;5095989;28;20040;-69
2023/09/07 06:29:23;;;;;;;1.75;1.40;;;17.40;42.70;;;;;;5095034;28;20491;-67
2023/09/07 06:31:49;;;;;;;1.60;1.50;;;17.80;39.00;;;;;;5095367;28;20044;-67
2023/09/07 06:34:16;;;;;;;3.08;1.83;;;18.10;35.90;;;;;;5095428;28;20040;-67
2023/09/07 06:36:41;;;;;;;2.08;1.77;;;17.90;33.90;;;;;;5094172;28;20284;-68
2023/09/07 06:39:07;;;;;;;2.75;1.65;;;17.70;27.50;;;;;;5095684;28;20036;-67
2023/09/07 06:41:33;;;;;;;1.45;1.35;;;18.70;6.00;;;;;;5095411;28;20040;-67
2023/09/07 06:43:58;;;;;;;1.52;1.40;;;18.00;1.00;;;;;;5095405;28;20047;-65
2023/09/07 06:46:24;;;;;;;1.73;1.63;;;18.20;1.00;;;;;;5111194;28;20384;-66
2023/09/07 06:48:50;;;;;;;1.63;1.52;;;18.50;1.00;;;;;;5095360;28;20116;-66
2023/09/07 06:51:15;;;;;;;1.52;1.10;;;19.30;1.00;;;;;;5095275;28;20036;-66
2023/09/07 06:53:41;;;;;;;1.35;1.17;;;18.70;1.00;;;;;;5095054;28;20040;-66
2023/09/07 06:56:07;;;;;;;1.35;1.25;;;18.80;1.00;;;;;;5095100;28;20040;-66
2023/09/07 06:58:34;;;;;;;1.30;1.20;;;19.00;1.00;;;;;;5095292;28;20039;-67
2023/09/07 07:01:01;;;;;;;1.63;1.40;;;19.20;1.00;;;;;;5095185;28;20044;-67
2023/09/07 07:03:30;;;;;;;1.40;1.30;;;20.00;1.00;;;;;;5094963;28;20043;-66
2023/09/07 07:05:56;;;;;;;1.15;1.08;;;19.50;1.00;;;;;;5094711;28;20052;-66
2023/09/07 07:08:22;;;;;;;1.77;1.40;;;19.60;1.00;;;;;;5095029;28;20050;-67
2023/09/07 07:10:48;;;;;;;1.52;1.42;;;19.70;1.00;;;;;;5093383;28;20461;-66
2023/09/07 07:13:14;;;;;;;1.55;1.25;;;19.90;1.00;;;;;;5093555;28;20134;-67
2023/09/07 07:15:41;;;;;;;2.13;1.00;;;19.90;99.90;;;;;;5094626;28;20079;-66
2023/09/07 07:18:08;;;;;;;1.23;1.13;;;20.10;99.90;;;;;;5094682;28;20047;-65
2023/09/07 07:20:40;;;;;;;1.90;1.60;;;20.20;99.90;;;;;;5094868;28;20032;-66
2023/09/07 07:23:09;;;;;;;1.40;1.30;;;20.30;99.90;;;;;;5094866;28;20044;-66
2023/09/07 07:25:35;;;;;;;1.20;1.10;;;20.70;99.90;;;;;;5094485;28;20040;-66
2023/09/07 07:28:05;;;;;;;1.40;1.30;;;20.60;99.90;;;;;;5094757;28;20477;-66
2023/09/07 07:30:38;;;;;;;1.20;1.13;;;20.70;99.90;;;;;;5094686;28;20048;-66
2023/09/07 07:33:04;;;;;;;1.50;1.40;;;20.90;99.90;;;;;;5094621;28;20040;-66
2023/09/07 07:35:30;;;;;;;3.00;1.33;;;21.10;99.90;;;;;;5094688;28;20036;-66
2023/09/07 07:37:56;;;;;;;2.08;1.50;;;21.40;99.90;;;;;;5093193;28;20044;-66
2023/09/07 07:40:22;;;;;;;1.50;1.40;;;21.40;99.90;;;;;;5093396;28;20381;-67
2023/09/07 07:42:48;;;;;;;1.10;1.00;;;22.10;46.50;;;;;;5110024;28;20169;-66
2023/09/07 07:45:14;;;;;;;1.65;1.45;;;21.80;99.90;;;;;;5094122;28;20059;-67
2023/09/07 07:47:43;;;;;;;1.30;1.20;;;21.70;99.90;;;;;;5092953;28;20051;-65
2023/09/07 07:50:09;;;;;;;1.48;1.25;;;21.90;99.90;;;;;;5092757;28;20132;-66
2023/09/07 07:52:35;;;;;;;1.48;1.30;;;21.60;99.90;;;;;;5094268;28;20082;-66
2023/09/07 07:55:01;;;;;;;1.30;1.13;;;22.30;1.00;;;;;;5094363;28;20040;-66
2023/09/07 07:57:26;;;;;;;1.60;1.50;;;22.20;99.90;;;;;;5093912;28;20391;-65
2023/09/07 07:59:52;;;;;;;2.17;1.23;;;22.40;99.90;;;;;;5093866;28;20052;-65
2023/09/07 08:02:17;;;;;;;1.15;1.10;;;22.40;99.90;;;;;;5094146;28;20047;-65
2023/09/07 08:04:43;;;;;;;1.50;1.40;;;22.20;99.90;;;;;;5093965;28;20083;-65
2023/09/07 08:07:08;;;;;;;1.83;1.58;;;22.30;90.30;;;;;;5109465;28;20048;-66
2023/09/07 08:09:35;;;;;;;1.27;1.17;;;22.40;99.90;;;;;;5109425;28;20047;-66
2023/09/07 08:12:03;;;;;;;1.42;1.33;;;22.50;99.90;;;;;;5093734;28;20040;-66
2023/09/07 08:14:30;;;;;;;2.80;1.40;;;22.50;99.90;;;;;;5092477;28;20115;-66
2023/09/07 08:16:57;;;;;;;0.98;0.98;;;22.40;79.00;;;;;;5093891;28;20062;-66
2023/09/07 08:19:22;;;;;;;1.20;1.10;;;22.80;99.90;;;;;;5093803;28;20036;-66
2023/09/07 08:21:48;;;;;;;1.90;1.58;;;22.80;1.00;;;;;;5093616;28;20051;-65
2023/09/07 08:24:14;;;;;;;1.73;1.63;;;22.90;99.90;;;;;;5093855;28;20043;-67
2023/09/07 08:26:39;;;;;;;1.40;1.30;;;22.90;1.00;;;;;;5093440;28;20063;-66
2023/09/07 08:29:06;;;;;;;1.48;1.38;;;23.00;99.90;;;;;;5109121;28;20044;-66
2023/09/07 08:31:33;;;;;;;1.33;1.20;;;23.00;99.90;;;;;;5093531;28;20075;-68
2023/09/07 08:34:05;;;;;;;2.22;1.00;;;23.10;58.50;;;;;;5093548;28;20124;-66
2023/09/07 08:36:34;;;;;;;1.30;1.20;;;23.10;1.00;;;;;;5093532;28;20048;-66
2023/09/07 08:39:08;;;;;;;1.20;1.10;;;23.20;1.00;;;;;;5093441;28;20043;-66
2023/09/07 08:41:41;;;;;;;1.63;1.52;;;23.30;99.90;;;;;;5093184;28;20043;-66
2023/09/07 08:44:09;;;;;;;2.00;1.40;;;23.90;99.90;;;;;;5093167;28;20117;-66
2023/09/07 08:46:36;;;;;;;1.30;1.20;;;23.40;99.90;;;;;;5093377;28;20044;-66
2023/09/07 08:49:03;;;;;;;1.38;1.27;;;23.40;99.90;;;;;;5093426;28;20036;-67
2023/09/07 08:51:31;;;;;;;1.40;1.30;;;23.50;99.90;;;;;;5093062;28;20472;-66
2023/09/07 08:54:00;;;;;;;1.30;1.20;;;24.00;99.90;;;;;;5091687;28;20118;-67
2023/09/07 08:56:26;;;;;;;1.50;1.40;;;23.60;99.90;;;;;;5092997;28;20040;-67
2023/09/07 08:58:52;;;;;;;1.25;1.10;;;23.70;99.90;;;;;;5091975;28;20044;-67
2023/09/07 09:01:18;;;;;;;1.40;1.30;;;23.80;99.90;;;;;;5092953;28;20032;-68
2023/09/07 09:03:45;;;;;;;1.20;1.10;;;23.80;99.90;;;;;;5093118;28;20437;-69
2023/09/07 09:06:12;;;;;;;1.10;1.10;;;24.00;99.90;;;;;;5091636;28;20056;-67
2023/09/07 09:08:54;;;;;;;1.40;1.30;;;23.80;70.20;;;;;;5093201;28;20139;-68
2023/09/07 09:11:20;;;;;;;1.45;1.35;;;23.80;4.90;;;;;;5074646;28;20052;-68
2023/09/07 09:13:47;;;;;;;1.10;1.00;;;23.90;1.00;;;;;;5091592;28;20089;-67
2023/09/07 09:16:13;;;;;;;2.15;1.35;;;23.90;1.00;;;;;;5091549;28;20043;-67
2023/09/07 09:18:49;;;;;;;1.50;1.30;;;24.30;1.00;;;;;;5091793;28;20157;-67
2023/09/07 09:21:16;;;;;;;1.40;1.30;;;24.40;1.00;;;;;;5091448;28;20411;-67
2023/09/07 09:23:41;;;;;;;1.40;1.30;;;24.10;1.00;;;;;;5092661;28;20065;-67
2023/09/07 09:26:07;;;;;;;1.30;1.20;;;24.20;1.00;;;;;;5092991;28;20040;-67
2023/09/07 09:28:33;;;;;;;3.53;1.70;;;24.20;1.00;;;;;;5109065;28;20506;-67
2023/09/07 09:31:00;;;;;;;1.33;1.23;;;24.30;1.00;;;;;;5092840;28;20036;-67
2023/09/07 09:33:27;;;;;;;1.40;1.30;;;24.30;1.00;;;;;;5092935;28;20039;-67
2023/09/07 09:35:54;;;;;;;1.77;1.60;;;24.40;1.00;;;;;;5092921;28;20589;-68
2023/09/07 09:38:20;;;;;;;1.50;1.40;;;24.30;1.00;;;;;;5092732;28;20040;-67
2023/09/07 09:40:45;;;;;;;1.48;1.38;;;24.40;1.00;;;;;;5092907;28;20047;-67
2023/09/07 09:43:12;;;;;;;1.40;1.30;;;24.50;1.00;;;;;;5092531;28;20050;-67
2023/09/07 09:45:39;;;;;;;1.45;1.35;;;24.50;1.00;;;;;;5092960;28;20047;-67
2023/09/07 09:48:06;;;;;;;2.63;1.58;;;24.50;99.90;;;;;;5092787;28;20376;-67
2023/09/07 09:50:37;;;;;;;2.10;1.60;;;24.60;1.00;;;;;;5092647;28;20089;-67
2023/09/07 09:53:07;;;;;;;1.50;1.40;;;24.60;99.90;;;;;;5092733;28;20111;-67
2023/09/07 09:55:38;;;;;;;1.45;1.30;;;24.70;99.90;;;;;;5092697;28;20031;-67
2023/09/07 09:58:04;;;;;;;1.10;1.10;;;24.80;99.90;;;;;;5092510;28;20083;-66
2023/09/07 10:00:30;;;;;;;1.30;1.20;;;24.90;99.90;;;;;;5092700;28;20079;-66
2023/09/07 10:03:28;;;;;;;2.17;1.20;;;24.90;99.90;;;;;;5092697;28;20044;-66
2023/09/07 10:05:54;;;;;;;1.17;1.10;;;25.10;99.90;;;;;;5095383;28;20052;-66
2023/09/07 10:08:24;;;;;;;1.08;1.05;;;25.20;99.90;;;;;;5096309;28;20066;-66
2023/09/07 10:10:54;;;;;;;;;;;25.20;99.90;;;;;;5096729;28;20408;-66
2023/09/07 10:13:39;;;;;;;1.30;1.20;;;25.30;99.90;;;;;;5095079;28;20371;-66
2023/09/07 10:16:07;;;;;;;1.27;1.15;;;25.40;99.90;;;;;;5095476;28;20449;-66
2023/09/07 10:18:37;;;;;;;1.30;1.20;;;25.50;99.90;;;;;;5096107;28;20047;-66
2023/09/07 10:21:03;;;;;;;;;;;25.60;99.90;;;;;;5096501;28;20376;-67
2023/09/07 10:23:43;;;;;;;1.10;1.08;;;25.60;99.90;;;;;;5094524;28;19923;-66
2023/09/07 10:26:16;;;;;;;1.30;1.20;;;26.10;99.90;;;;;;5095926;28;20532;-67
2023/09/07 10:28:44;;;;;;;1.30;1.20;;;25.90;99.90;;;;;;5095910;28;20510;-68
2023/09/07 10:31:19;;;;;;;1.00;1.00;;;26.00;99.90;;;;;;5095461;28;20040;-67
2023/09/07 10:33:46;;;;;;;1.23;1.13;;;26.00;99.90;;;;;;5095866;28;20395;-67
2023/09/07 10:36:23;;;;;;;0.93;0.90;;;26.10;99.90;;;;;;5095450;28;20043;-67
2023/09/07 10:38:51;;;;;;;1.30;1.20;;;26.20;99.90;;;;;;5094553;28;20048;-67
2023/09/07 10:41:17;;;;;;;1.88;1.45;;;26.20;99.90;;;;;;5095631;28;20043;-67
2023/09/07 10:43:54;;;;;;;1.23;1.13;;;26.30;99.90;;;;;;5111127;28;20051;-68
2023/09/07 10:46:21;;;;;;;1.08;0.93;;;26.30;99.90;;;;;;5095295;28;20044;-67
2023/09/07 10:48:51;;;;;;;1.83;1.05;;;26.40;99.90;;;;;;5095681;28;20525;-67
2023/09/07 10:51:18;;;;;;;1.25;1.15;;;26.40;99.90;;;;;;5095271;28;20040;-67
2023/09/07 10:53:44;;;;;;;1.35;1.20;;;26.50;99.90;;;;;;5095404;28;20047;-67
2023/09/07 10:56:10;;;;;;;2.42;1.33;;;26.60;99.90;;;;;;5110897;28;20405;-67
2023/09/07 10:58:41;;;;;;;1.10;1.00;;;26.60;99.90;;;;;;5095321;28;20090;-68
2023/09/07 11:01:10;;;;;;;1.00;1.00;;;26.90;99.90;;;;;;5095342;28;20040;-67
2023/09/07 11:03:37;;;;;;;0.95;0.95;;;26.70;99.90;;;;;;5077021;28;20054;-69
2023/09/07 11:06:19;;;;;;;1.63;1.00;;;26.80;99.90;;;;;;5094906;28;20406;-67
2023/09/07 11:08:47;;;;;;;2.10;1.23;;;26.70;99.90;;;;;;5095186;28;20420;-67
2023/09/07 11:11:14;;;;;;;1.33;1.23;;;26.70;99.90;;;;;;5094743;28;20090;-67
2023/09/07 11:13:39;;;;;;;1.17;1.08;;;27.70;99.90;;;;;;5094798;28;20036;-67
2023/09/07 11:16:08;;;;;;;0.80;0.80;;;26.70;99.90;;;;;;5094807;28;20043;-66
2023/09/07 11:18:37;;;;;;;0.95;0.95;;;26.70;99.90;;;;;;5094934;28;20082;-68
2023/09/07 11:21:03;;;;;;;1.02;0.93;;;26.80;99.90;;;;;;5094564;28;20377;-67
2023/09/07 11:23:37;;;;;;;0.80;0.80;;;26.80;99.90;;;;;;5094824;28;20455;-67
2023/09/07 11:26:08;;;;;;;1.02;0.95;;;26.90;99.90;;;;;;5094390;28;20077;-67
2023/09/07 11:28:34;;;;;;;0.90;0.90;;;26.90;99.90;;;;;;5093517;28;20059;-67
2023/09/07 11:31:00;;;;;;;2.30;1.20;;;26.90;99.90;;;;;;5094654;28;20154;-67
2023/09/07 11:33:27;;;;;;;0.82;0.82;;;26.90;99.90;;;;;;5093070;28;20512;-68
2023/09/07 11:35:55;;;;;;;1.10;1.00;;;27.10;99.90;;;;;;5093366;28;20553;-67
2023/09/07 11:38:22;;;;;;;0.85;0.80;;;27.00;99.90;;;;;;5094594;28;20032;-67
2023/09/07 11:40:47;;;;;;;2.70;1.15;;;27.00;99.90;;;;;;5093002;28;20088;-68
2023/09/07 11:43:14;;;;;;;1.15;1.15;;;26.90;99.90;;;;;;5110142;28;20119;-68
2023/09/07 11:45:44;;;;;;;1.15;1.05;;;27.20;99.90;;;;;;5094347;28;20036;-69
2023/09/07 11:48:10;;;;;;;1.60;1.00;;;27.20;99.90;;;;;;5094136;28;20115;-67
2023/09/07 11:50:37;;;;;;;0.90;0.90;;;27.30;99.90;;;;;;5094297;28;20044;-67
2023/09/07 11:53:03;;;;;;;0.77;0.77;;;27.40;99.90;;;;;;5094220;28;20043;-67
2023/09/07 11:55:29;;;;;;;1.55;1.08;;;27.40;99.90;;;;;;5094236;28;20036;-67
2023/09/07 11:57:54;;;;;;;1.20;1.10;;;27.50;99.90;;;;;;5093995;28;20032;-68
2023/09/07 12:00:22;;;;;;;1.80;0.80;;;27.50;99.90;;;;;;5092968;28;20039;-66
2023/09/07 12:02:47;;;;;;;1.00;1.00;;;27.50;99.90;;;;;;5093751;28;20043;-66
2023/09/07 12:05:15;;;;;;;1.27;1.00;;;27.50;99.90;;;;;;5093557;28;20048;-66
2023/09/07 12:07:43;;;;;;;1.25;1.15;;;27.50;99.90;;;;;;5093965;28;20055;-65
2023/09/07 12:10:13;;;;;;;1.10;1.10;;;27.60;99.90;;;;;;5093844;28;20044;-66
2023/09/07 12:12:42;;;;;;;;;;;27.60;99.90;;;;;;5092819;28;20032;-66
2023/09/07 12:15:11;;;;;;;1.00;1.00;;;27.70;99.90;;;;;;5093486;28;19926;-66
2023/09/07 12:17:37;;;;;;;0.93;0.80;;;27.70;99.90;;;;;;5093980;28;20047;-66
2023/09/07 12:20:04;;;;;;;1.38;1.08;;;27.80;99.90;;;;;;5092142;28;20126;-66
2023/09/07 12:22:30;;;;;;;2.45;1.10;;;27.90;99.90;;;;;;5092227;28;20043;-66
2023/09/07 12:24:56;;;;;;;1.10;1.00;;;27.90;99.90;;;;;;5093678;28;20105;-66
2023/09/07 12:27:22;;;;;;;1.15;1.05;;;27.90;99.90;;;;;;5093201;28;20032;-66
2023/09/07 12:29:48;;;;;;;1.40;1.05;;;27.90;99.90;;;;;;5093324;28;20641;-66
2023/09/07 12:32:14;;;;;;;0.80;0.80;;;27.90;99.90;;;;;;5093647;28;20407;-66
2023/09/07 12:34:40;;;;;;;1.30;1.00;;;27.90;99.90;;;;;;5108985;28;20098;-66
2023/09/07 12:37:06;;;;;;;0.80;0.80;;;28.00;99.90;;;;;;5108826;28;20377;-66
2023/09/07 12:39:32;;;;;;;3.05;1.20;;;27.90;99.90;;;;;;5093465;28;20038;-66
2023/09/07 12:41:58;;;;;;;0.90;0.90;;;27.90;99.90;;;;;;5093387;28;20481;-66
2023/09/07 12:44:23;;;;;;;0.90;0.90;;;28.00;99.90;;;;;;5093404;28;20161;-66
2023/09/07 12:46:49;;;;;;;1.48;0.90;;;28.00;99.90;;;;;;5092964;28;20031;-66
2023/09/07 12:49:17;;;;;;;0.90;0.90;;;28.00;99.90;;;;;;5093269;28;20066;-66